sensor_id;sensor_type;location;lat;lon;timestamp;pressure;altitude;pressure_sealevel;temperature;humidity
36502;BME280;25393;46.108;3.390;2023-03-16T00:02:13;98030.00;;;5.54;60.97
36502;BME280;25393;46.108;3.390;2023-03-16T00:04:39;98016.72;;;5.46;60.97
36502;BME280;25393;46.108;3.390;2023-03-16T00:07:13;98022.25;;;5.24;62.72
36502;BME280;25393;46.108;3.390;2023-03-16T00:09:41;98033.44;;;5.16;62.22
36502;BME280;25393;46.108;3.390;2023-03-16T00:12:18;98043.50;;;5.11;62.79
36502;BME280;25393;46.108;3.390;2023-03-16T00:14:46;98040.34;;;5.17;62.16
36502;BME280;25393;46.108;3.390;2023-03-16T00:17:17;98035.19;;;5.06;62.28
36502;BME280;25393;46.108;3.390;2023-03-16T00:19:54;98037.09;;;4.94;62.13
36502;BME280;25393;46.108;3.390;2023-03-16T00:22:28;98015.25;;;4.94;62.57
36502;BME280;25393;46.108;3.390;2023-03-16T00:24:55;98034.72;;;4.82;62.50
36502;BME280;25393;46.108;3.390;2023-03-16T00:27:23;98017.78;;;4.65;62.88
36502;BME280;25393;46.108;3.390;2023-03-16T00:29:51;98025.53;;;4.67;63.94
36502;BME280;25393;46.108;3.390;2023-03-16T00:32:24;98025.13;;;4.71;63.68
36502;BME280;25393;46.108;3.390;2023-03-16T00:34:51;98015.06;;;4.76;63.67
36502;BME280;25393;46.108;3.390;2023-03-16T00:37:19;98027.63;;;4.82;64.35
36502;BME280;25393;46.108;3.390;2023-03-16T00:39:49;98029.47;;;4.82;63.87
36502;BME280;25393;46.108;3.390;2023-03-16T00:42:17;98030.13;;;4.74;64.27
36502;BME280;25393;46.108;3.390;2023-03-16T00:44:44;98034.28;;;4.77;64.33
36502;BME280;25393;46.108;3.390;2023-03-16T00:47:14;98030.97;;;4.75;64.45
36502;BME280;25393;46.108;3.390;2023-03-16T00:49:42;98019.34;;;4.77;65.24
36502;BME280;25393;46.108;3.390;2023-03-16T00:52:11;98012.25;;;4.68;65.28
36502;BME280;25393;46.108;3.390;2023-03-16T00:54:42;98005.25;;;4.78;65.58
36502;BME280;25393;46.108;3.390;2023-03-16T00:57:14;98002.72;;;4.67;65.60
36502;BME280;25393;46.108;3.390;2023-03-16T00:59:41;98000.75;;;4.60;65.70
36502;BME280;25393;46.108;3.390;2023-03-16T01:02:10;97990.72;;;4.74;65.64
36502;BME280;25393;46.108;3.390;2023-03-16T01:04:38;97997.22;;;4.80;65.26
36502;BME280;25393;46.108;3.390;2023-03-16T01:07:08;98002.28;;;4.62;65.88
36502;BME280;25393;46.108;3.390;2023-03-16T01:09:34;98002.56;;;4.59;66.37
36502;BME280;25393;46.108;3.390;2023-03-16T01:12:03;97997.00;;;4.52;66.41
36502;BME280;25393;46.108;3.390;2023-03-16T01:14:32;97991.84;;;4.41;66.97
36502;BME280;25393;46.108;3.390;2023-03-16T01:17:01;97996.72;;;4.46;66.43
36502;BME280;25393;46.108;3.390;2023-03-16T01:19:28;97992.78;;;4.40;66.68
36502;BME280;25393;46.108;3.390;2023-03-16T01:21:55;97983.53;;;4.36;66.19
36502;BME280;25393;46.108;3.390;2023-03-16T01:24:22;97979.75;;;4.29;65.74
36502;BME280;25393;46.108;3.390;2023-03-16T01:26:49;97978.22;;;4.27;66.52
36502;BME280;25393;46.108;3.390;2023-03-16T01:29:16;97977.97;;;4.30;66.04
36502;BME280;25393;46.108;3.390;2023-03-16T01:31:48;97980.13;;;4.45;65.67
36502;BME280;25393;46.108;3.390;2023-03-16T01:34:17;97973.03;;;4.67;65.81
36502;BME280;25393;46.108;3.390;2023-03-16T01:36:48;97969.84;;;4.73;65.15
36502;BME280;25393;46.108;3.390;2023-03-16T01:39:16;97973.78;;;4.58;66.00
36502;BME280;25393;46.108;3.390;2023-03-16T01:41:45;97966.97;;;4.36;65.95
36502;BME280;25393;46.108;3.390;2023-03-16T01:44:15;97960.91;;;4.45;66.40
36502;BME280;25393;46.108;3.390;2023-03-16T01:46:50;97951.00;;;4.58;66.79
36502;BME280;25393;46.108;3.390;2023-03-16T01:49:26;97968.75;;;4.35;67.48
36502;BME280;25393;46.108;3.390;2023-03-16T01:54:27;97961.16;;;4.32;68.52
36502;BME280;25393;46.108;3.390;2023-03-16T01:57:14;97950.22;;;4.27;68.78
36502;BME280;25393;46.108;3.390;2023-03-16T02:02:08;97948.41;;;3.77;70.96
36502;BME280;25393;46.108;3.390;2023-03-16T02:05:00;97953.91;;;3.74;71.67
36502;BME280;25393;46.108;3.390;2023-03-16T02:07:31;97937.94;;;3.77;71.65
36502;BME280;25393;46.108;3.390;2023-03-16T02:10:03;97937.03;;;3.67;72.54
36502;BME280;25393;46.108;3.390;2023-03-16T02:12:30;97921.78;;;3.51;72.80
36502;BME280;25393;46.108;3.390;2023-03-16T02:14:57;97926.28;;;3.70;72.71
36502;BME280;25393;46.108;3.390;2023-03-16T02:17:26;97924.06;;;3.86;72.55
36502;BME280;25393;46.108;3.390;2023-03-16T02:22:50;97907.03;;;4.01;71.69
36502;BME280;25393;46.108;3.390;2023-03-16T02:25:25;97908.94;;;3.99;71.46
36502;BME280;25393;46.108;3.390;2023-03-16T02:28:11;97898.97;;;3.93;71.75
36502;BME280;25393;46.108;3.390;2023-03-16T02:30:41;97894.47;;;4.05;70.87
36502;BME280;25393;46.108;3.390;2023-03-16T02:33:07;97898.25;;;4.12;70.28
36502;BME280;25393;46.108;3.390;2023-03-16T02:35:34;97894.72;;;4.01;70.59
36502;BME280;25393;46.108;3.390;2023-03-16T02:38:01;97888.88;;;3.88;70.05
36502;BME280;25393;46.108;3.390;2023-03-16T02:40:29;97886.47;;;3.76;70.63
36502;BME280;25393;46.108;3.390;2023-03-16T02:43:12;97894.50;;;3.84;70.92
36502;BME280;25393;46.108;3.390;2023-03-16T02:45:52;97891.97;;;3.73;71.02
36502;BME280;25393;46.108;3.390;2023-03-16T02:48:28;97879.09;;;3.70;71.20
36502;BME280;25393;46.108;3.390;2023-03-16T02:50:57;97887.34;;;3.86;71.20
36502;BME280;25393;46.108;3.390;2023-03-16T02:53:24;97867.78;;;3.90;71.03
36502;BME280;25393;46.108;3.390;2023-03-16T02:55:53;97883.31;;;4.12;70.50
36502;BME280;25393;46.108;3.390;2023-03-16T02:58:20;97875.91;;;4.27;69.86
36502;BME280;25393;46.108;3.390;2023-03-16T03:00:50;97864.56;;;4.17;69.63
36502;BME280;25393;46.108;3.390;2023-03-16T03:03:17;97874.47;;;4.13;70.01
36502;BME280;25393;46.108;3.390;2023-03-16T03:05:44;97870.75;;;4.16;69.51
36502;BME280;25393;46.108;3.390;2023-03-16T03:08:11;97864.53;;;4.07;69.55
36502;BME280;25393;46.108;3.390;2023-03-16T03:10:37;97864.00;;;4.13;70.51
36502;BME280;25393;46.108;3.390;2023-03-16T03:13:05;97856.44;;;3.89;70.97
36502;BME280;25393;46.108;3.390;2023-03-16T03:15:33;97866.56;;;3.94;71.14
36502;BME280;25393;46.108;3.390;2023-03-16T03:18:00;97857.69;;;3.95;71.12
36502;BME280;25393;46.108;3.390;2023-03-16T03:20:26;97846.28;;;3.66;72.28
36502;BME280;25393;46.108;3.390;2023-03-16T03:22:53;97846.84;;;3.48;73.52
36502;BME280;25393;46.108;3.390;2023-03-16T03:25:25;97861.69;;;3.38;74.07
36502;BME280;25393;46.108;3.390;2023-03-16T03:27:52;97859.97;;;3.28;74.97
36502;BME280;25393;46.108;3.390;2023-03-16T03:30:23;97846.16;;;3.05;75.95
36502;BME280;25393;46.108;3.390;2023-03-16T03:32:50;97854.28;;;3.02;76.60
36502;BME280;25393;46.108;3.390;2023-03-16T03:35:22;97854.72;;;3.07;77.26
36502;BME280;25393;46.108;3.390;2023-03-16T03:37:52;97853.19;;;3.05;77.24
36502;BME280;25393;46.108;3.390;2023-03-16T03:40:20;97846.22;;;2.94;78.21
36502;BME280;25393;46.108;3.390;2023-03-16T03:42:49;97850.78;;;3.13;77.64
36502;BME280;25393;46.108;3.390;2023-03-16T03:45:16;97836.59;;;3.15;77.31
36502;BME280;25393;46.108;3.390;2023-03-16T03:47:43;97835.44;;;3.08;77.08
36502;BME280;25393;46.108;3.390;2023-03-16T03:50:11;97830.34;;;2.75;78.06
36502;BME280;25393;46.108;3.390;2023-03-16T03:52:38;97833.94;;;2.74;79.03
36502;BME280;25393;46.108;3.390;2023-03-16T03:55:05;97831.34;;;2.63;80.14
36502;BME280;25393;46.108;3.390;2023-03-16T03:57:32;97844.59;;;2.82;80.16
36502;BME280;25393;46.108;3.390;2023-03-16T03:59:58;97829.41;;;2.96;78.88
36502;BME280;25393;46.108;3.390;2023-03-16T04:02:25;97817.72;;;2.80;78.87
36502;BME280;25393;46.108;3.390;2023-03-16T04:04:51;97825.56;;;2.80;79.22
36502;BME280;25393;46.108;3.390;2023-03-16T04:07:20;97827.50;;;2.78;79.94
36502;BME280;25393;46.108;3.390;2023-03-16T04:09:47;97836.22;;;2.67;80.08
36502;BME280;25393;46.108;3.390;2023-03-16T04:12:13;97828.56;;;2.75;79.82
36502;BME280;25393;46.108;3.390;2023-03-16T04:14:40;97838.91;;;2.77;80.37
36502;BME280;25393;46.108;3.390;2023-03-16T04:17:06;97835.13;;;2.70;80.69
36502;BME280;25393;46.108;3.390;2023-03-16T04:19:33;97827.00;;;2.52;81.65
36502;BME280;25393;46.108;3.390;2023-03-16T04:21:59;97833.72;;;2.66;81.39
36502;BME280;25393;46.108;3.390;2023-03-16T04:24:26;97828.22;;;2.69;81.88
36502;BME280;25393;46.108;3.390;2023-03-16T04:26:52;97835.25;;;2.68;81.70
36502;BME280;25393;46.108;3.390;2023-03-16T04:29:21;97824.94;;;2.56;82.68
36502;BME280;25393;46.108;3.390;2023-03-16T04:31:48;97826.84;;;2.53;82.98
36502;BME280;25393;46.108;3.390;2023-03-16T04:34:14;97819.47;;;2.59;82.44
36502;BME280;25393;46.108;3.390;2023-03-16T04:36:41;97827.06;;;2.62;82.24
36502;BME280;25393;46.108;3.390;2023-03-16T04:39:08;97827.13;;;2.71;81.66
36502;BME280;25393;46.108;3.390;2023-03-16T04:41:36;97830.50;;;2.94;80.06
36502;BME280;25393;46.108;3.390;2023-03-16T04:44:02;97828.19;;;2.80;79.51
36502;BME280;25393;46.108;3.390;2023-03-16T04:46:30;97830.47;;;2.73;79.90
36502;BME280;25393;46.108;3.390;2023-03-16T04:48:59;97825.47;;;2.49;81.47
36502;BME280;25393;46.108;3.390;2023-03-16T04:51:28;97817.47;;;2.51;81.54
36502;BME280;25393;46.108;3.390;2023-03-16T04:53:59;97827.31;;;2.59;81.48
36502;BME280;25393;46.108;3.390;2023-03-16T04:56:29;97833.59;;;2.67;81.90
36502;BME280;25393;46.108;3.390;2023-03-16T04:58:59;97826.44;;;2.37;82.71
36502;BME280;25393;46.108;3.390;2023-03-16T05:01:28;97823.47;;;2.31;83.40
36502;BME280;25393;46.108;3.390;2023-03-16T05:03:55;97822.03;;;2.38;82.94
36502;BME280;25393;46.108;3.390;2023-03-16T05:06:25;97823.16;;;2.24;84.70
36502;BME280;25393;46.108;3.390;2023-03-16T05:08:52;97821.22;;;2.26;85.03
36502;BME280;25393;46.108;3.390;2023-03-16T05:11:18;97806.72;;;2.22;84.48
36502;BME280;25393;46.108;3.390;2023-03-16T05:13:45;97810.25;;;2.32;84.23
36502;BME280;25393;46.108;3.390;2023-03-16T05:16:11;97805.63;;;2.36;83.80
36502;BME280;25393;46.108;3.390;2023-03-16T05:18:38;97800.88;;;2.30;83.84
36502;BME280;25393;46.108;3.390;2023-03-16T05:21:05;97810.44;;;2.20;84.75
36502;BME280;25393;46.108;3.390;2023-03-16T05:23:31;97797.44;;;2.29;84.03
36502;BME280;25393;46.108;3.390;2023-03-16T05:25:58;97792.44;;;2.37;84.36
36502;BME280;25393;46.108;3.390;2023-03-16T05:28:26;97796.56;;;2.40;84.29
36502;BME280;25393;46.108;3.390;2023-03-16T05:30:55;97793.28;;;2.27;83.88
36502;BME280;25393;46.108;3.390;2023-03-16T05:33:22;97803.94;;;2.46;83.25
36502;BME280;25393;46.108;3.390;2023-03-16T05:35:49;97779.47;;;2.36;83.32
36502;BME280;25393;46.108;3.390;2023-03-16T05:38:16;97800.69;;;2.53;82.43
36502;BME280;25393;46.108;3.390;2023-03-16T05:40:43;97796.44;;;2.53;82.87
36502;BME280;25393;46.108;3.390;2023-03-16T05:43:11;97800.31;;;2.58;82.39
36502;BME280;25393;46.108;3.390;2023-03-16T05:45:37;97801.97;;;2.59;81.86
36502;BME280;25393;46.108;3.390;2023-03-16T05:48:04;97802.50;;;2.53;82.84
36502;BME280;25393;46.108;3.390;2023-03-16T05:50:31;97802.94;;;2.58;82.29
36502;BME280;25393;46.108;3.390;2023-03-16T05:52:57;97804.47;;;2.61;82.47
36502;BME280;25393;46.108;3.390;2023-03-16T05:55:26;97804.56;;;2.70;81.48
36502;BME280;25393;46.108;3.390;2023-03-16T05:57:52;97787.59;;;2.53;80.57
36502;BME280;25393;46.108;3.390;2023-03-16T06:00:19;97792.72;;;2.55;80.61
36502;BME280;25393;46.108;3.390;2023-03-16T06:02:48;97797.63;;;2.48;80.26
36502;BME280;25393;46.108;3.390;2023-03-16T06:05:16;97791.38;;;2.61;80.56
36502;BME280;25393;46.108;3.390;2023-03-16T06:07:44;97805.13;;;2.74;80.06
36502;BME280;25393;46.108;3.390;2023-03-16T06:10:11;97790.72;;;2.79;80.12
36502;BME280;25393;46.108;3.390;2023-03-16T06:12:38;97791.50;;;2.91;78.95
36502;BME280;25393;46.108;3.390;2023-03-16T06:15:06;97790.72;;;3.00;78.72
36502;BME280;25393;46.108;3.390;2023-03-16T06:17:34;97796.34;;;3.16;77.72
36502;BME280;25393;46.108;3.390;2023-03-16T06:20:02;97784.19;;;3.15;77.78
36502;BME280;25393;46.108;3.390;2023-03-16T06:22:33;97786.56;;;2.97;77.67
36502;BME280;25393;46.108;3.390;2023-03-16T06:25:02;97779.50;;;3.09;78.08
36502;BME280;25393;46.108;3.390;2023-03-16T06:27:31;97777.81;;;3.08;77.67
36502;BME280;25393;46.108;3.390;2023-03-16T06:29:57;97773.47;;;3.18;77.94
36502;BME280;25393;46.108;3.390;2023-03-16T06:32:26;97784.06;;;3.17;77.91
36502;BME280;25393;46.108;3.390;2023-03-16T06:34:53;97782.09;;;3.30;94.89
36502;BME280;25393;46.108;3.390;2023-03-16T06:37:19;97783.00;;;3.49;85.46
36502;BME280;25393;46.108;3.390;2023-03-16T06:39:47;97768.50;;;3.45;79.83
36502;BME280;25393;46.108;3.390;2023-03-16T06:42:14;97782.31;;;3.47;78.60
36502;BME280;25393;46.108;3.390;2023-03-16T06:44:43;97775.53;;;3.45;78.43
36502;BME280;25393;46.108;3.390;2023-03-16T06:47:10;97757.91;;;3.47;76.96
36502;BME280;25393;46.108;3.390;2023-03-16T06:49:37;97767.47;;;3.58;76.61
36502;BME280;25393;46.108;3.390;2023-03-16T06:52:03;97762.28;;;3.77;75.41
36502;BME280;25393;46.108;3.390;2023-03-16T06:54:33;97766.16;;;3.82;75.17
36502;BME280;25393;46.108;3.390;2023-03-16T06:57:02;97767.16;;;3.91;74.57
36502;BME280;25393;46.108;3.390;2023-03-16T06:59:32;97760.81;;;3.93;74.38
36502;BME280;25393;46.108;3.390;2023-03-16T07:02:00;97755.88;;;4.19;73.31
36502;BME280;25393;46.108;3.390;2023-03-16T07:04:27;97750.13;;;4.35;71.76
36502;BME280;25393;46.108;3.390;2023-03-16T07:06:57;97734.66;;;4.41;71.48
36502;BME280;25393;46.108;3.390;2023-03-16T07:09:26;97723.16;;;4.62;70.46
36502;BME280;25393;46.108;3.390;2023-03-16T07:11:52;97720.66;;;4.79;69.50
36502;BME280;25393;46.108;3.390;2023-03-16T07:14:19;97725.94;;;4.89;69.66
36502;BME280;25393;46.108;3.390;2023-03-16T07:16:48;97716.06;;;5.00;67.52
36502;BME280;25393;46.108;3.390;2023-03-16T07:19:14;97721.13;;;5.21;66.77
36502;BME280;25393;46.108;3.390;2023-03-16T07:21:41;97719.00;;;5.44;67.74
36502;BME280;25393;46.108;3.390;2023-03-16T07:24:09;97714.31;;;5.65;67.03
36502;BME280;25393;46.108;3.390;2023-03-16T07:26:36;97720.19;;;5.86;66.33
36502;BME280;25393;46.108;3.390;2023-03-16T07:29:03;97720.56;;;5.91;66.30
36502;BME280;25393;46.108;3.390;2023-03-16T07:31:33;97714.38;;;6.10;64.65
36502;BME280;25393;46.108;3.390;2023-03-16T07:34:03;97711.66;;;6.37;63.55
36502;BME280;25393;46.108;3.390;2023-03-16T07:36:32;97715.75;;;6.49;61.28
36502;BME280;25393;46.108;3.390;2023-03-16T07:39:02;97717.47;;;6.59;60.60
36502;BME280;25393;46.108;3.390;2023-03-16T07:41:32;97724.00;;;6.72;61.36
36502;BME280;25393;46.108;3.390;2023-03-16T07:44:01;97714.22;;;6.82;61.08
36502;BME280;25393;46.108;3.390;2023-03-16T07:46:29;97703.91;;;6.89;61.00
36502;BME280;25393;46.108;3.390;2023-03-16T07:48:58;97704.00;;;7.05;60.61
36502;BME280;25393;46.108;3.390;2023-03-16T07:51:32;97708.69;;;7.45;62.16
36502;BME280;25393;46.108;3.390;2023-03-16T07:54:01;97716.25;;;7.74;59.89
36502;BME280;25393;46.108;3.390;2023-03-16T07:56:32;97716.03;;;8.09;59.33
36502;BME280;25393;46.108;3.390;2023-03-16T07:59:13;97704.28;;;8.62;57.18
36502;BME280;25393;46.108;3.390;2023-03-16T08:01:40;97697.63;;;9.14;55.96
36502;BME280;25393;46.108;3.390;2023-03-16T08:04:06;97695.53;;;9.57;53.96
36502;BME280;25393;46.108;3.390;2023-03-16T08:06:33;97694.75;;;9.87;51.28
36502;BME280;25393;46.108;3.390;2023-03-16T08:09:02;97698.09;;;10.20;50.88
36502;BME280;25393;46.108;3.390;2023-03-16T08:11:33;97695.81;;;10.17;49.92
36502;BME280;25393;46.108;3.390;2023-03-16T08:14:02;97685.50;;;10.22;50.99
36502;BME280;25393;46.108;3.390;2023-03-16T08:16:29;97692.81;;;10.42;51.37
36502;BME280;25393;46.108;3.390;2023-03-16T08:18:57;97692.25;;;10.70;51.47
36502;BME280;25393;46.108;3.390;2023-03-16T08:21:31;97684.16;;;11.23;51.48
36502;BME280;25393;46.108;3.390;2023-03-16T08:24:02;97686.75;;;11.61;49.93
36502;BME280;25393;46.108;3.390;2023-03-16T08:26:32;97665.25;;;11.85;49.03
36502;BME280;25393;46.108;3.390;2023-03-16T08:28:59;97660.97;;;12.20;48.23
36502;BME280;25393;46.108;3.390;2023-03-16T08:31:31;97664.84;;;12.38;46.92
36502;BME280;25393;46.108;3.390;2023-03-16T08:34:00;97669.03;;;12.69;47.07
36502;BME280;25393;46.108;3.390;2023-03-16T08:36:29;97667.22;;;13.18;45.81
36502;BME280;25393;46.108;3.390;2023-03-16T08:38:56;97664.19;;;13.62;44.69
36502;BME280;25393;46.108;3.390;2023-03-16T08:41:32;97659.31;;;13.72;43.51
36502;BME280;25393;46.108;3.390;2023-03-16T08:44:03;97674.44;;;13.99;43.46
36502;BME280;25393;46.108;3.390;2023-03-16T08:46:34;97671.63;;;14.21;43.97
36502;BME280;25393;46.108;3.390;2023-03-16T08:49:01;97676.38;;;13.78;46.42
36502;BME280;25393;46.108;3.390;2023-03-16T08:51:28;97674.63;;;13.23;48.47
36502;BME280;25393;46.108;3.390;2023-03-16T08:53:58;97665.38;;;12.97;49.81
36502;BME280;25393;46.108;3.390;2023-03-16T08:56:26;97668.63;;;13.48;50.20
36502;BME280;25393;46.108;3.390;2023-03-16T08:58:56;97673.28;;;13.74;48.60
36502;BME280;25393;46.108;3.390;2023-03-16T09:01:23;97664.22;;;13.69;47.20
36502;BME280;25393;46.108;3.390;2023-03-16T09:03:51;97665.41;;;13.60;48.12
36502;BME280;25393;46.108;3.390;2023-03-16T09:06:18;97666.50;;;13.10;48.53
36502;BME280;25393;46.108;3.390;2023-03-16T09:08:45;97655.16;;;13.22;49.12
36502;BME280;25393;46.108;3.390;2023-03-16T09:11:15;97648.47;;;13.05;49.24
36502;BME280;25393;46.108;3.390;2023-03-16T09:13:42;97653.25;;;13.16;51.16
36502;BME280;25393;46.108;3.390;2023-03-16T09:16:11;97646.56;;;12.99;50.57
36502;BME280;25393;46.108;3.390;2023-03-16T09:18:38;97642.03;;;13.55;50.93
36502;BME280;25393;46.108;3.390;2023-03-16T09:21:06;97648.66;;;14.13;50.21
36502;BME280;25393;46.108;3.390;2023-03-16T09:23:33;97640.91;;;14.31;48.23
36502;BME280;25393;46.108;3.390;2023-03-16T09:26:04;97640.59;;;14.80;47.05
36502;BME280;25393;46.108;3.390;2023-03-16T09:28:34;97649.19;;;14.89;46.07
36502;BME280;25393;46.108;3.390;2023-03-16T09:31:01;97642.81;;;15.36;46.66
36502;BME280;25393;46.108;3.390;2023-03-16T09:33:31;97639.91;;;15.57;44.90
36502;BME280;25393;46.108;3.390;2023-03-16T09:36:00;97637.78;;;15.79;45.77
36502;BME280;25393;46.108;3.390;2023-03-16T09:38:31;97640.75;;;15.58;44.25
36502;BME280;25393;46.108;3.390;2023-03-16T09:41:06;97636.56;;;15.75;45.32
36502;BME280;25393;46.108;3.390;2023-03-16T09:48:40;97635.53;;;15.69;44.45
36502;BME280;25393;46.108;3.390;2023-03-16T09:51:22;97631.28;;;16.44;43.16
36502;BME280;25393;46.108;3.390;2023-03-16T09:53:57;97617.38;;;17.16;43.89
36502;BME280;25393;46.108;3.390;2023-03-16T09:56:35;97619.34;;;17.27;40.73
36502;BME280;25393;46.108;3.390;2023-03-16T09:59:09;97620.97;;;16.79;41.92
36502;BME280;25393;46.108;3.390;2023-03-16T10:05:07;97606.50;;;16.86;43.41
36502;BME280;25393;46.108;3.390;2023-03-16T10:12:51;97592.47;;;18.78;40.27
36502;BME280;25393;46.108;3.390;2023-03-16T10:15:23;97602.75;;;18.81;37.68
36502;BME280;25393;46.108;3.390;2023-03-16T10:18:19;97602.53;;;18.94;38.96
36502;BME280;25393;46.108;3.390;2023-03-16T10:20:49;97591.31;;;18.85;38.05
36502;BME280;25393;46.108;3.390;2023-03-16T10:23:22;97576.88;;;19.10;37.47
36502;BME280;25393;46.108;3.390;2023-03-16T10:25:51;97587.09;;;18.66;37.35
36502;BME280;25393;46.108;3.390;2023-03-16T10:28:21;97580.69;;;18.90;40.15
36502;BME280;25393;46.108;3.390;2023-03-16T10:30:56;97567.28;;;19.02;37.29
36502;BME280;25393;46.108;3.390;2023-03-16T10:33:33;97580.59;;;18.85;38.40
36502;BME280;25393;46.108;3.390;2023-03-16T10:36:28;97576.22;;;18.73;39.41
36502;BME280;25393;46.108;3.390;2023-03-16T10:39:01;97566.00;;;19.05;37.91
36502;BME280;25393;46.108;3.390;2023-03-16T10:41:37;97561.53;;;19.33;36.59
36502;BME280;25393;46.108;3.390;2023-03-16T10:44:14;97563.81;;;19.76;35.90
36502;BME280;25393;46.108;3.390;2023-03-16T10:46:47;97553.50;;;20.41;35.32
36502;BME280;25393;46.108;3.390;2023-03-16T10:49:41;97552.13;;;20.72;35.61
36502;BME280;25393;46.108;3.390;2023-03-16T10:52:23;97551.41;;;20.93;34.59
36502;BME280;25393;46.108;3.390;2023-03-16T10:55:25;97541.47;;;21.11;32.68
36502;BME280;25393;46.108;3.390;2023-03-16T10:57:57;97529.75;;;21.22;34.32
36502;BME280;25393;46.108;3.390;2023-03-16T11:00:36;97522.75;;;21.64;34.18
36502;BME280;25393;46.108;3.390;2023-03-16T11:03:21;97519.75;;;22.04;32.48
36502;BME280;25393;46.108;3.390;2023-03-16T11:06:20;97510.69;;;22.15;31.85
36502;BME280;25393;46.108;3.390;2023-03-16T11:08:48;97512.19;;;22.06;32.05
36502;BME280;25393;46.108;3.390;2023-03-16T11:11:29;97511.03;;;22.51;32.94
36502;BME280;25393;46.108;3.390;2023-03-16T11:14:03;97507.63;;;23.02;31.80
36502;BME280;25393;46.108;3.390;2023-03-16T11:16:43;97500.34;;;23.45;30.59
36502;BME280;25393;46.108;3.390;2023-03-16T11:19:30;97504.75;;;23.66;30.72
36502;BME280;25393;46.108;3.390;2023-03-16T11:22:21;97497.00;;;23.95;30.03
36502;BME280;25393;46.108;3.390;2023-03-16T11:30:13;97483.56;;;23.43;29.32
36502;BME280;25393;46.108;3.390;2023-03-16T11:32:46;97479.22;;;22.95;30.36
36502;BME280;25393;46.108;3.390;2023-03-16T11:38:50;97479.25;;;23.00;31.36
36502;BME280;25393;46.108;3.390;2023-03-16T11:43:31;97470.28;;;23.36;30.78
36502;BME280;25393;46.108;3.390;2023-03-16T11:48:40;97460.09;;;23.58;29.67
36502;BME280;25393;46.108;3.390;2023-03-16T11:54:14;97455.41;;;24.87;27.75
36502;BME280;25393;46.108;3.390;2023-03-16T11:56:48;97451.25;;;25.14;27.03
36502;BME280;25393;46.108;3.390;2023-03-16T12:02:38;97433.19;;;24.39;27.43
36502;BME280;25393;46.108;3.390;2023-03-16T12:10:46;97420.47;;;24.19;27.97
36502;BME280;25393;46.108;3.390;2023-03-16T12:15:50;97421.22;;;23.95;26.60
36502;BME280;25393;46.108;3.390;2023-03-16T12:18:25;97409.63;;;23.99;28.46
36502;BME280;25393;46.108;3.390;2023-03-16T12:21:05;97409.94;;;24.38;27.64
36502;BME280;25393;46.108;3.390;2023-03-16T12:23:36;97403.34;;;24.79;28.72
36502;BME280;25393;46.108;3.390;2023-03-16T12:26:04;97395.63;;;25.32;27.43
36502;BME280;25393;46.108;3.390;2023-03-16T12:28:33;97394.25;;;25.34;26.80
36502;BME280;25393;46.108;3.390;2023-03-16T12:31:08;97402.63;;;25.92;26.63
36502;BME280;25393;46.108;3.390;2023-03-16T12:39:23;97388.06;;;26.74;26.02
36502;BME280;25393;46.108;3.390;2023-03-16T12:42:05;97385.00;;;26.57;26.53
36502;BME280;25393;46.108;3.390;2023-03-16T12:44:47;97385.09;;;25.74;25.47
36502;BME280;25393;46.108;3.390;2023-03-16T12:47:41;97377.88;;;25.99;26.07
36502;BME280;25393;46.108;3.390;2023-03-16T12:50:16;97367.59;;;25.96;24.71
36502;BME280;25393;46.108;3.390;2023-03-16T12:52:51;97373.03;;;25.42;25.13
36502;BME280;25393;46.108;3.390;2023-03-16T12:55:23;97359.41;;;25.62;25.73
36502;BME280;25393;46.108;3.390;2023-03-16T12:57:57;97348.53;;;25.67;24.71
36502;BME280;25393;46.108;3.390;2023-03-16T13:00:37;97333.16;;;25.91;24.21
36502;BME280;25393;46.108;3.390;2023-03-16T13:03:09;97342.34;;;26.29;26.36
36502;BME280;25393;46.108;3.390;2023-03-16T13:05:43;97340.22;;;26.50;23.79
36502;BME280;25393;46.108;3.390;2023-03-16T13:08:14;97334.66;;;26.65;24.16
36502;BME280;25393;46.108;3.390;2023-03-16T13:10:42;97331.25;;;27.25;24.16
36502;BME280;25393;46.108;3.390;2023-03-16T13:13:24;97326.75;;;27.91;23.78
36502;BME280;25393;46.108;3.390;2023-03-16T13:16:06;97314.34;;;27.66;23.57
36502;BME280;25393;46.108;3.390;2023-03-16T13:18:38;97321.75;;;27.98;23.82
36502;BME280;25393;46.108;3.390;2023-03-16T13:23:59;97318.84;;;28.26;23.69
36502;BME280;25393;46.108;3.390;2023-03-16T13:29:24;97303.53;;;28.58;22.47
36502;BME280;25393;46.108;3.390;2023-03-16T13:31:57;97309.31;;;28.56;22.84
36502;BME280;25393;46.108;3.390;2023-03-16T13:34:51;97327.41;;;28.01;24.04
36502;BME280;25393;46.108;3.390;2023-03-16T13:37:19;97314.66;;;28.61;23.66
36502;BME280;25393;46.108;3.390;2023-03-16T13:39:56;97308.41;;;28.15;21.02
36502;BME280;25393;46.108;3.390;2023-03-16T13:42:24;97315.44;;;28.48;21.89
36502;BME280;25393;46.108;3.390;2023-03-16T13:44:56;97304.38;;;28.72;21.56
36502;BME280;25393;46.108;3.390;2023-03-16T13:47:25;97283.25;;;29.32;21.38
36502;BME280;25393;46.108;3.390;2023-03-16T13:49:57;97286.91;;;29.00;20.23
36502;BME280;25393;46.108;3.390;2023-03-16T13:52:32;97299.06;;;28.21;21.24
36502;BME280;25393;46.108;3.390;2023-03-16T13:55:09;97293.09;;;28.19;20.60
36502;BME280;25393;46.108;3.390;2023-03-16T13:57:40;97273.13;;;28.23;21.18
36502;BME280;25393;46.108;3.390;2023-03-16T14:00:13;97284.78;;;27.78;21.60
36502;BME280;25393;46.108;3.390;2023-03-16T14:02:43;97276.03;;;27.44;21.17
36502;BME280;25393;46.108;3.390;2023-03-16T14:08:01;97267.00;;;27.48;21.37
36502;BME280;25393;46.108;3.390;2023-03-16T14:10:34;97256.75;;;27.59;21.39
36502;BME280;25393;46.108;3.390;2023-03-16T14:13:20;97268.06;;;27.85;21.84
36502;BME280;25393;46.108;3.390;2023-03-16T14:15:47;97251.34;;;28.23;19.91
36502;BME280;25393;46.108;3.390;2023-03-16T14:18:16;97261.47;;;27.72;21.23
36502;BME280;25393;46.108;3.390;2023-03-16T14:20:51;97262.78;;;27.74;22.77
36502;BME280;25393;46.108;3.390;2023-03-16T14:23:23;97267.09;;;27.62;22.43
36502;BME280;25393;46.108;3.390;2023-03-16T14:25:51;97251.91;;;27.56;21.78
36502;BME280;25393;46.108;3.390;2023-03-16T14:28:21;97251.19;;;27.50;23.26
36502;BME280;25393;46.108;3.390;2023-03-16T14:30:54;97250.88;;;27.52;23.15